Terminal Aerodrome Forecast
Issued by NWS

Home | Current Version | Previous Version | Text Only | Print | Product List | Glossary On
Versions: 1 2 3 4 5 6 7 8 9 10 11 12 13 14 15 16 17 18 19 20 21 22 23 24 25 26 27 28 29
000
FTUS41 KCTP 222211 AAD
TAFJST
TAF AMD
KJST 222211Z 2222/2318 27009KT 3SM TSRA BKN045CB BKN100
     FM222245 28010KT P6SM VCSH OVC050
     FM230400 29010KT P6SM OVC015
     FM230600 29010KT P6SM OVC009
     FM231300 30007KT P6SM BKN020
     FM231500 30007KT P6SM SCT045=

USA.gov is the U.S. government's official web portal to all federal, state and local government web resources and services.